createdAt,value
2018-10-05T00:02:30.801Z,99360.86
2018-10-05T00:05:03.442Z,99365.39
2018-10-05T00:07:34.567Z,99364.41
2018-10-05T00:10:06.549Z,99357.97
2018-10-05T00:12:37.695Z,99353.30
2018-10-05T00:15:09.035Z,99349.95
2018-10-05T00:17:39.575Z,99345.38
2018-10-05T00:20:10.779Z,99349.19
2018-10-05T00:22:43.111Z,99346.09
2018-10-05T00:25:14.199Z,99340.84
2018-10-05T00:27:45.246Z,99335.45
2018-10-05T00:30:16.132Z,99339.86
2018-10-05T00:32:47.005Z,99338.89
2018-10-05T00:35:18.118Z,99327.49
2018-10-05T00:37:49.119Z,99332.02
2018-10-05T00:40:19.863Z,99321.77
2018-10-05T00:42:50.650Z,99316.38
2018-10-05T00:45:21.637Z,99313.23
2018-10-05T00:47:52.631Z,99312.00
2018-10-05T00:50:23.473Z,99306.41
2018-10-05T00:52:54.355Z,99294.59
2018-10-05T00:55:25.284Z,99295.77
2018-10-05T00:57:56.177Z,99291.95
2018-10-05T01:00:27.125Z,99290.47
2018-10-05T01:02:57.990Z,99288.80
2018-10-05T01:05:28.894Z,99276.84
2018-10-05T01:07:59.904Z,99286.36
2018-10-05T01:10:30.893Z,99288.17
2018-10-05T01:13:01.784Z,99291.94
2018-10-05T01:15:32.494Z,99295.20
2018-10-05T01:18:03.356Z,99292.30
2018-10-05T01:20:34.411Z,99279.04
2018-10-05T01:23:05.244Z,99283.17
2018-10-05T01:25:36.135Z,99285.06
2018-10-05T01:28:07.102Z,99287.84
2018-10-05T01:30:38.053Z,99282.91
2018-10-05T01:33:08.921Z,99268.76
2018-10-05T01:35:39.845Z,99264.24
2018-10-05T01:38:11.016Z,99265.20
2018-10-05T01:40:41.892Z,99258.66
2018-10-05T01:43:12.761Z,99252.83
2018-10-05T01:45:43.504Z,99255.66
2018-10-05T01:48:14.332Z,99264.94
2018-10-05T01:50:45.217Z,99254.66
2018-10-05T01:53:16.081Z,99260.98
2018-10-05T01:55:47.674Z,99258.70
2018-10-05T01:58:18.342Z,99262.05
2018-10-05T02:00:49.494Z,99259.55
2018-10-05T02:03:20.305Z,99274.44
2018-10-05T02:05:51.203Z,99269.63
2018-10-05T02:08:22.050Z,99267.97
2018-10-05T02:10:52.882Z,99267.27
2018-10-05T02:13:23.718Z,99268.92
2018-10-05T02:15:54.669Z,99267.99
2018-10-05T02:18:25.488Z,99258.33
2018-10-05T02:20:56.241Z,99265.11
2018-10-05T02:23:27.184Z,99271.00
2018-10-05T02:25:58.241Z,99263.34
2018-10-05T02:28:29.096Z,99264.50
2018-10-05T02:30:59.999Z,99260.88
2018-10-05T02:33:31.096Z,99260.26
2018-10-05T02:36:02.348Z,99254.59
2018-10-05T02:38:33.283Z,99246.59
2018-10-05T02:41:04.402Z,99243.74
2018-10-05T02:43:35.334Z,99238.42
2018-10-05T02:46:06.136Z,99241.31
2018-10-05T02:48:36.715Z,99238.31
2018-10-05T02:51:07.791Z,99226.06
2018-10-05T02:53:38.596Z,99230.27
2018-10-05T02:56:09.332Z,99222.39
2018-10-05T02:58:40.153Z,99221.04
2018-10-05T03:01:27.286Z,99222.93
2018-10-05T03:03:58.169Z,99223.46
2018-10-05T03:06:28.771Z,99221.92
2018-10-05T03:08:59.749Z,99219.09
2018-10-05T03:11:30.608Z,99223.67
2018-10-05T03:14:01.331Z,99220.30
2018-10-05T03:16:32.038Z,99212.41
2018-10-05T03:19:02.728Z,99209.60
2018-10-05T03:21:33.355Z,99208.36
2018-10-05T03:24:04.145Z,99211.38
2018-10-05T03:26:35.019Z,99201.28
2018-10-05T03:29:05.829Z,99204.91
2018-10-05T03:31:36.669Z,99210.96
2018-10-05T03:34:07.604Z,99207.68
2018-10-05T03:36:38.513Z,99211.81
2018-10-05T03:39:09.380Z,99202.97
2018-10-05T03:41:40.353Z,99201.52
2018-10-05T03:44:11.238Z,99203.84
2018-10-05T03:46:41.991Z,99207.95
2018-10-05T03:49:13.031Z,99203.64
2018-10-05T03:51:44.531Z,99201.92
2018-10-05T03:54:15.347Z,99211.52
2018-10-05T03:56:46.355Z,99210.69
2018-10-05T03:59:17.068Z,99213.12
2018-10-05T04:01:47.901Z,99210.36
2018-10-05T04:04:18.718Z,99215.70
2018-10-05T04:06:49.343Z,99202.50
2018-10-05T04:09:20.018Z,99198.57
2018-10-05T04:11:50.782Z,99194.41
2018-10-05T04:14:22.349Z,99188.52
2018-10-05T04:16:53.112Z,99181.85
2018-10-05T04:19:23.876Z,99169.48
2018-10-05T04:21:54.692Z,99167.28
2018-10-05T04:24:25.589Z,99171.27
2018-10-05T04:26:56.565Z,99173.27
2018-10-05T04:29:27.348Z,99171.38
2018-10-05T04:31:58.173Z,99176.19
2018-10-05T04:34:29.120Z,99185.23
2018-10-05T04:37:00.000Z,99179.99
2018-10-05T04:39:30.757Z,99178.95
2018-10-05T04:42:01.551Z,99173.25
2018-10-05T04:44:32.340Z,99166.85
2018-10-05T04:47:03.183Z,99164.52
2018-10-05T04:49:33.832Z,99173.99
2018-10-05T04:52:04.586Z,99161.41
2018-10-05T04:54:35.296Z,99160.50
2018-10-05T04:57:06.131Z,99164.45
2018-10-05T04:59:37.050Z,99174.20
2018-10-05T05:02:08.733Z,99179.71
2018-10-05T05:04:40.416Z,99178.21
2018-10-05T05:07:11.340Z,99185.97
2018-10-05T05:09:42.354Z,99182.20
2018-10-05T05:12:13.337Z,99185.69
2018-10-05T05:14:44.102Z,99196.19
2018-10-05T05:17:15.124Z,99195.86
2018-10-05T05:19:45.964Z,99192.91
2018-10-05T05:22:16.658Z,99202.94
2018-10-05T05:24:47.636Z,99192.58
2018-10-05T05:27:18.570Z,99190.94
2018-10-05T05:29:49.467Z,99195.59
2018-10-05T05:32:20.543Z,99194.03
2018-10-05T05:34:51.413Z,99183.53
2018-10-05T05:37:22.258Z,99187.42
2018-10-05T05:39:53.130Z,99192.31
2018-10-05T05:42:23.871Z,99185.37
2018-10-05T05:44:54.645Z,99191.34
2018-10-05T05:47:25.453Z,99192.02
2018-10-05T05:49:56.181Z,99209.89
2018-10-05T05:52:27.041Z,99215.27
2018-10-05T05:54:58.850Z,99206.30
2018-10-05T05:57:30.150Z,99211.34
2018-10-05T06:00:01.423Z,99207.66
2018-10-05T06:02:33.250Z,99209.95
2018-10-05T06:05:04.352Z,99210.18
2018-10-05T06:07:36.242Z,99206.74
2018-10-05T06:10:07.767Z,99207.67
2018-10-05T06:12:38.668Z,99209.58
2018-10-05T06:15:09.885Z,99216.65
2018-10-05T06:17:40.584Z,99223.08
2018-10-05T06:20:11.676Z,99213.89
2018-10-05T06:22:43.591Z,99211.88
2018-10-05T06:25:15.198Z,99217.65
2018-10-05T06:27:45.965Z,99213.89
2018-10-05T06:30:16.805Z,99215.49
2018-10-05T06:32:47.716Z,99217.22
2018-10-05T06:35:18.857Z,99215.30
2018-10-05T06:37:49.906Z,99210.55
2018-10-05T06:40:20.813Z,99212.82
2018-10-05T06:42:51.731Z,99207.80
2018-10-05T06:45:22.726Z,99208.28
2018-10-05T06:47:54.049Z,99202.27
2018-10-05T06:50:25.552Z,99199.25
2018-10-05T06:52:57.548Z,99208.80
2018-10-05T06:55:29.359Z,99206.63
2018-10-05T06:58:00.223Z,99221.69
2018-10-05T07:00:32.928Z,99221.70
2018-10-05T07:03:06.162Z,99207.59
2018-10-05T07:05:39.763Z,99222.91
2018-10-05T07:08:12.605Z,99216.73
2018-10-05T07:10:46.921Z,99213.60
2018-10-05T07:13:17.961Z,99202.97
2018-10-05T07:15:50.122Z,99211.56
2018-10-05T07:18:20.846Z,99214.23
2018-10-05T07:20:53.544Z,99216.69
2018-10-05T07:23:27.696Z,99213.42
2018-10-05T07:25:59.698Z,99222.31
2018-10-05T07:28:31.250Z,99233.23
2018-10-05T07:31:03.106Z,99229.15
2018-10-05T07:33:35.757Z,99215.15
2018-10-05T07:36:07.695Z,99201.11
2018-10-05T07:38:38.831Z,99201.14
2018-10-05T07:41:11.595Z,99205.33
2018-10-05T07:43:44.115Z,99202.30
2018-10-05T07:46:15.149Z,99220.23
2018-10-05T07:48:45.744Z,99221.08
2018-10-05T07:51:16.633Z,99221.38
2018-10-05T07:53:47.442Z,99227.89
2018-10-05T07:56:18.455Z,99234.87
2018-10-05T07:58:49.938Z,99238.30
2018-10-05T08:01:21.048Z,99248.68
2018-10-05T08:03:51.854Z,99257.08
2018-10-05T08:06:22.998Z,99257.66
2018-10-05T08:08:54.070Z,99249.97
2018-10-05T08:11:24.952Z,99255.36
2018-10-05T08:13:55.990Z,99248.46
2018-10-05T08:16:26.994Z,99246.14
2018-10-05T08:18:57.858Z,99243.76
2018-10-05T08:21:28.757Z,99235.61
2018-10-05T08:23:59.399Z,99236.02
2018-10-05T08:26:30.422Z,99230.56
2018-10-05T08:29:01.297Z,99239.23
2018-10-05T08:31:33.158Z,99241.29
2018-10-05T08:34:04.005Z,99243.94
2018-10-05T08:36:35.823Z,99239.64
2018-10-05T08:39:08.680Z,99233.09
2018-10-05T08:41:39.958Z,99238.30
2018-10-05T08:44:11.387Z,99240.66
2018-10-05T08:46:43.119Z,99238.83
2018-10-05T08:49:14.243Z,99236.45
2018-10-05T08:51:45.271Z,99231.33
2018-10-05T08:54:16.501Z,99230.90
2018-10-05T08:56:47.566Z,99226.67
2018-10-05T08:59:18.706Z,99226.11
2018-10-05T09:01:51.473Z,99226.62
2018-10-05T09:04:22.273Z,99223.03
2018-10-05T09:06:53.197Z,99215.15
2018-10-05T09:09:24.861Z,99230.59
2018-10-05T09:11:56.374Z,99240.59
2018-10-05T09:14:27.181Z,99232.75
2018-10-05T09:16:57.985Z,99229.88
2018-10-05T09:19:29.277Z,99229.98
2018-10-05T09:22:00.039Z,99218.52
2018-10-05T09:24:31.050Z,99205.70
2018-10-05T09:27:01.870Z,99204.86
2018-10-05T09:29:32.900Z,99200.55
2018-10-05T09:32:03.722Z,99203.84
2018-10-05T09:34:34.728Z,99204.46
2018-10-05T09:37:08.437Z,99218.26
2018-10-05T09:39:39.992Z,99208.53
2018-10-05T09:42:11.181Z,99214.22
2018-10-05T09:44:43.406Z,99201.25
2018-10-05T09:47:14.786Z,99204.36
2018-10-05T09:49:46.639Z,99205.59
2018-10-05T09:52:17.741Z,99209.80
2018-10-05T09:54:48.554Z,99205.41
2018-10-05T09:57:19.433Z,99194.33
2018-10-05T09:59:50.566Z,99199.64
2018-10-05T10:02:26.617Z,99203.97
2018-10-05T10:04:57.472Z,99198.66
2018-10-05T10:07:28.297Z,99196.50
2018-10-05T10:09:59.157Z,99197.19
2018-10-05T10:12:29.883Z,99187.71
2018-10-05T10:15:00.957Z,99190.55
2018-10-05T10:17:32.703Z,99185.09
2018-10-05T10:20:03.660Z,99184.09
2018-10-05T10:22:34.785Z,99183.11
2018-10-05T10:25:05.900Z,99163.31
2018-10-05T10:27:36.809Z,99167.16
2018-10-05T10:30:08.593Z,99157.33
2018-10-05T10:32:39.695Z,99164.00
2018-10-05T10:35:11.637Z,99150.71
2018-10-05T10:37:42.549Z,99157.42
2018-10-05T10:40:13.452Z,99164.81
2018-10-05T10:42:45.472Z,99162.36
2018-10-05T10:45:17.398Z,99154.52
2018-10-05T10:47:48.131Z,99144.33
2018-10-05T10:50:19.323Z,99151.71
2018-10-05T10:52:50.084Z,99135.33
2018-10-05T10:55:20.976Z,99134.83
2018-10-05T10:57:52.221Z,99138.73
2018-10-05T11:00:24.209Z,99137.83
2018-10-05T11:02:56.406Z,99134.33
2018-10-05T11:05:27.749Z,99132.95
2018-10-05T11:07:58.662Z,99123.08
2018-10-05T11:10:29.502Z,99124.75
2018-10-05T11:13:00.782Z,99123.56
2018-10-05T11:15:31.713Z,99115.64
2018-10-05T11:18:02.486Z,99115.95
2018-10-05T11:20:33.572Z,99108.34
2018-10-05T11:23:04.300Z,99109.57
2018-10-05T11:25:35.425Z,99097.38
2018-10-05T11:28:07.342Z,99112.56
2018-10-05T11:30:38.580Z,99111.66
2018-10-05T11:33:10.183Z,99106.69
2018-10-05T11:35:41.049Z,99100.02
2018-10-05T11:38:12.110Z,99106.08
2018-10-05T11:40:43.000Z,99108.14
2018-10-05T11:43:14.342Z,99099.88
2018-10-05T11:45:45.313Z,99111.20
2018-10-05T11:48:16.112Z,99108.87
2018-10-05T11:50:46.973Z,99101.41
2018-10-05T11:53:17.763Z,99092.05
2018-10-05T11:55:51.717Z,99096.67
2018-10-05T11:58:23.033Z,99098.75
2018-10-05T12:00:54.429Z,99092.50
2018-10-05T12:03:27.395Z,99089.19
2018-10-05T12:05:58.559Z,99094.72
2018-10-05T12:08:30.555Z,99089.38
2018-10-05T12:11:03.091Z,99091.45
2018-10-05T12:13:35.791Z,99088.47
2018-10-05T12:16:06.931Z,99084.61
2018-10-05T12:18:39.038Z,99085.73
2018-10-05T12:21:10.461Z,99076.70
2018-10-05T12:23:42.869Z,99078.15
2018-10-05T12:26:14.588Z,99076.09
2018-10-05T12:28:46.437Z,99082.10
2018-10-05T12:31:19.812Z,99079.06
2018-10-05T12:33:51.039Z,99072.95
2018-10-05T12:36:22.843Z,99069.66
2018-10-05T12:38:53.486Z,99070.39
2018-10-05T12:41:24.768Z,99065.77
2018-10-05T12:43:55.471Z,99069.91
2018-10-05T12:46:26.319Z,99066.64
2018-10-05T12:48:57.020Z,99063.63
2018-10-05T12:51:27.775Z,99064.31
2018-10-05T12:53:59.165Z,99048.94
2018-10-05T12:56:30.147Z,99062.36
2018-10-05T12:59:00.678Z,99055.16
2018-10-05T13:01:31.423Z,99051.09
2018-10-05T13:04:02.514Z,99042.78
2018-10-05T13:06:33.198Z,99050.00
2018-10-05T13:09:03.825Z,99053.75
2018-10-05T13:11:34.515Z,99045.53
2018-10-05T13:14:05.906Z,99044.20
2018-10-05T13:16:36.834Z,99039.31
2018-10-05T13:19:07.388Z,99037.38
2018-10-05T13:21:37.897Z,99036.72
2018-10-05T13:24:08.487Z,99034.03
2018-10-05T13:26:39.229Z,99025.48
2018-10-05T13:29:10.084Z,99019.34
2018-10-05T13:31:40.754Z,99017.05
2018-10-05T13:34:11.775Z,99012.13
2018-10-05T13:36:42.592Z,99007.90
2018-10-05T13:39:14.046Z,99012.01
2018-10-05T13:41:45.510Z,98999.86
2018-10-05T13:44:18.255Z,99005.84
2018-10-05T13:46:49.398Z,99017.23
2018-10-05T13:49:20.731Z,99015.48
2018-10-05T13:51:51.625Z,99019.14
2018-10-05T13:54:22.558Z,99011.86
2018-10-05T13:56:54.245Z,99011.64
2018-10-05T13:59:25.039Z,99005.86
2018-10-05T14:01:56.709Z,99010.67
2018-10-05T14:04:27.523Z,99005.19
2018-10-05T14:06:58.444Z,99009.67
2018-10-05T14:09:29.200Z,99006.95
2018-10-05T14:12:00.645Z,99007.67
2018-10-05T14:14:32.655Z,99007.27
2018-10-05T14:17:03.678Z,99008.48
2018-10-05T14:19:34.586Z,99008.51
2018-10-05T14:22:05.491Z,98997.07
2018-10-05T14:24:36.885Z,98997.43
2018-10-05T14:27:07.712Z,98998.49
2018-10-05T14:29:38.864Z,98996.69
2018-10-05T14:32:10.760Z,98995.09
2018-10-05T14:34:41.730Z,98990.73
2018-10-05T14:37:12.933Z,98995.91
2018-10-05T14:39:44.147Z,99000.58
2018-10-05T14:42:15.470Z,98998.59
2018-10-05T14:44:46.531Z,99004.16
2018-10-05T14:47:17.531Z,99003.03
2018-10-05T14:49:49.141Z,98996.72
2018-10-05T14:52:24.652Z,98996.34
2018-10-05T14:54:57.067Z,98999.80
2018-10-05T14:57:28.324Z,98999.89
2018-10-05T14:59:59.690Z,99004.38
2018-10-05T15:02:30.955Z,98998.81
2018-10-05T15:05:01.883Z,98988.45
2018-10-05T15:07:32.569Z,98991.13
2018-10-05T15:10:04.450Z,98992.02
2018-10-05T15:12:36.217Z,98983.11
2018-10-05T15:15:08.094Z,98975.02
2018-10-05T15:17:41.048Z,98976.05
2018-10-05T15:20:12.786Z,98979.30
2018-10-05T15:22:45.784Z,98972.19
2018-10-05T15:25:18.701Z,98975.72
2018-10-05T15:27:50.345Z,98981.20
2018-10-05T15:30:22.977Z,98983.20
2018-10-05T15:32:55.404Z,98978.59
2018-10-05T15:35:26.755Z,98977.17
2018-10-05T15:37:57.839Z,98982.66
2018-10-05T15:40:29.266Z,98987.40
2018-10-05T15:43:00.513Z,98980.10
2018-10-05T15:45:32.304Z,98973.62
2018-10-05T15:48:04.917Z,98972.17
2018-10-05T15:50:36.975Z,98982.07
2018-10-05T15:53:08.308Z,98978.30
2018-10-05T15:55:39.609Z,98978.30
2018-10-05T15:58:10.395Z,98971.83
2018-10-05T16:00:43.234Z,98967.62
2018-10-05T16:03:14.206Z,98970.38
2018-10-05T16:05:45.360Z,98963.47
2018-10-05T16:08:17.866Z,98970.83
2018-10-05T16:10:49.437Z,98977.20
2018-10-05T16:13:21.464Z,98970.92
2018-10-05T16:15:52.511Z,98969.77
2018-10-05T16:18:25.372Z,98979.95
2018-10-05T16:20:58.284Z,98976.31
2018-10-05T16:23:31.755Z,98972.73
2018-10-05T16:26:03.633Z,98974.21
2018-10-05T16:28:36.936Z,98974.60
2018-10-05T16:31:10.097Z,98976.47
2018-10-05T16:33:41.517Z,98972.16
2018-10-05T16:36:12.721Z,98973.83
2018-10-05T16:38:45.723Z,98978.33
2018-10-05T16:41:17.961Z,98986.00
2018-10-05T16:43:48.994Z,98974.84
2018-10-05T16:46:19.956Z,98972.36
2018-10-05T16:48:52.019Z,98974.01
2018-10-05T16:51:23.284Z,98977.15
2018-10-05T16:53:54.863Z,98974.49
2018-10-05T16:56:25.715Z,98972.49
2018-10-05T16:58:57.118Z,98970.14
2018-10-05T17:01:28.534Z,98975.61
2018-10-05T17:03:59.599Z,98995.80
2018-10-05T17:06:30.870Z,98993.66
2018-10-05T17:09:05.907Z,98992.69
2018-10-05T17:11:41.354Z,99005.28
2018-10-05T17:14:13.353Z,99001.95
2018-10-05T17:16:48.199Z,98999.77
2018-10-05T17:19:20.566Z,98997.55
2018-10-05T17:21:52.013Z,99007.48
2018-10-05T17:24:23.375Z,99016.33
2018-10-05T17:26:54.736Z,99016.20
2018-10-05T17:29:26.000Z,99019.17
2018-10-05T17:31:58.628Z,99023.16
2018-10-05T17:34:30.607Z,99033.09
2018-10-05T17:37:03.751Z,99032.77
2018-10-05T17:39:36.336Z,99031.02
2018-10-05T17:42:09.615Z,99033.63
2018-10-05T17:44:42.094Z,99048.19
2018-10-05T17:47:13.760Z,99041.00
2018-10-05T17:49:45.966Z,99036.50
2018-10-05T17:52:18.186Z,99035.77
2018-10-05T17:54:51.023Z,99038.69
2018-10-05T17:57:23.769Z,99044.45
2018-10-05T17:59:56.178Z,99046.20
2018-10-05T18:02:29.127Z,99046.83
2018-10-05T18:05:00.961Z,99042.31
2018-10-05T18:07:33.828Z,99048.73
2018-10-05T18:10:06.730Z,99046.93
2018-10-05T18:12:39.344Z,99045.12
2018-10-05T18:15:11.858Z,99053.78
2018-10-05T18:17:46.101Z,99049.30
2018-10-05T18:20:18.652Z,99048.83
2018-10-05T18:22:51.469Z,99053.08
2018-10-05T18:25:23.718Z,99052.24
2018-10-05T18:27:56.104Z,99063.89
2018-10-05T18:30:27.816Z,99071.29
2018-10-05T18:32:59.033Z,99067.30
2018-10-05T18:35:31.316Z,99072.97
2018-10-05T18:38:06.281Z,99081.30
2018-10-05T18:40:37.125Z,99084.16
2018-10-05T18:43:08.494Z,99096.33
2018-10-05T18:45:39.894Z,99097.64
2018-10-05T18:48:11.327Z,99094.09
2018-10-05T18:50:43.296Z,99103.25
2018-10-05T18:53:14.659Z,99099.70
2018-10-05T18:55:46.359Z,99095.79
2018-10-05T18:58:18.930Z,99099.27
2018-10-05T19:00:51.836Z,99106.20
2018-10-05T19:03:23.973Z,99102.93
2018-10-05T19:05:57.315Z,99102.93
2018-10-05T19:08:29.280Z,99106.08
2018-10-05T19:11:01.986Z,99096.48
2018-10-05T19:13:34.488Z,99111.85
2018-10-05T19:16:06.936Z,99111.49
2018-10-05T19:18:40.073Z,99099.12
2018-10-05T19:21:13.582Z,99110.48
2018-10-05T19:23:45.833Z,99106.41
2018-10-05T19:26:18.921Z,99101.61
2018-10-05T19:28:51.108Z,99092.61
2018-10-05T19:31:23.974Z,99108.28
2018-10-05T19:33:57.368Z,99104.80
2018-10-05T19:36:29.927Z,99098.77
2018-10-05T19:39:02.446Z,99099.75
2018-10-05T19:41:35.314Z,99108.38
2018-10-05T19:44:08.528Z,99100.77
2018-10-05T19:46:41.884Z,99105.73
2018-10-05T19:49:13.277Z,99106.20
2018-10-05T19:51:45.565Z,99106.05
2018-10-05T19:54:17.061Z,99112.66
2018-10-05T19:56:50.324Z,99108.22
2018-10-05T19:59:22.669Z,99108.16
2018-10-05T20:01:55.767Z,99109.48
2018-10-05T20:04:27.108Z,99100.14
2018-10-05T20:06:58.897Z,99096.81
2018-10-05T20:09:32.461Z,99097.81
2018-10-05T20:12:04.666Z,99099.27
2018-10-05T20:14:36.155Z,99109.81
2018-10-05T20:17:08.501Z,99102.39
2018-10-05T20:19:39.985Z,99103.76
2018-10-05T20:22:11.913Z,99106.48
2018-10-05T20:24:43.194Z,99106.41
2018-10-05T20:27:14.437Z,99109.45
2018-10-05T20:29:45.514Z,99102.78
2018-10-05T20:32:17.725Z,99101.76
2018-10-05T20:34:48.592Z,99105.61
2018-10-05T20:37:19.446Z,99107.55
2018-10-05T20:39:50.684Z,99114.52
2018-10-05T20:42:22.127Z,99123.05
2018-10-05T20:44:54.093Z,99124.99
2018-10-05T20:47:25.224Z,99116.52
2018-10-05T20:49:57.150Z,99119.28
2018-10-05T20:52:28.540Z,99121.52
2018-10-05T20:55:00.231Z,99110.89
2018-10-05T20:57:33.580Z,99102.35
2018-10-05T21:00:05.535Z,99102.98
2018-10-05T21:02:36.488Z,99102.50
2018-10-05T21:05:08.768Z,99103.81
2018-10-05T21:07:39.655Z,99093.27
2018-10-05T21:10:10.867Z,99087.77
2018-10-05T21:12:42.068Z,99089.09
2018-10-05T21:15:13.344Z,99083.48
2018-10-05T21:17:44.458Z,99086.34
2018-10-05T21:20:15.909Z,99090.84
2018-10-05T21:22:47.100Z,99089.16
2018-10-05T21:25:18.681Z,99085.30
2018-10-05T21:27:50.679Z,99089.27
2018-10-05T21:30:22.661Z,99091.54
2018-10-05T21:32:55.832Z,99104.11
2018-10-05T21:35:33.226Z,99106.27
2018-10-05T21:38:05.976Z,99112.72
2018-10-05T21:40:41.085Z,99112.02
2018-10-05T21:43:13.010Z,99103.77
2018-10-05T21:45:46.963Z,99102.78
2018-10-05T21:48:20.258Z,99111.69
2018-10-05T21:50:54.626Z,99156.75
2018-10-05T21:53:29.447Z,99218.88
2018-10-05T21:56:01.501Z,99223.58
2018-10-05T21:58:35.823Z,99159.60
2018-10-05T22:01:07.778Z,99141.92
2018-10-05T22:03:44.693Z,99158.05
2018-10-05T22:06:17.569Z,99153.87
2018-10-05T22:08:49.980Z,99153.80
2018-10-05T22:11:21.734Z,99150.70
2018-10-05T22:13:55.332Z,99147.27
2018-10-05T22:16:28.723Z,99143.25
2018-10-05T22:19:02.122Z,99135.19
2018-10-05T22:21:33.232Z,99130.14
2018-10-05T22:24:05.101Z,99132.23
2018-10-05T22:26:36.017Z,99127.19
2018-10-05T22:29:06.980Z,99131.92
2018-10-05T22:31:38.612Z,99127.08
2018-10-05T22:34:09.563Z,99127.84
2018-10-05T22:36:41.013Z,99127.23
2018-10-05T22:39:11.952Z,99131.19
2018-10-05T22:41:42.760Z,99126.53
2018-10-05T22:44:13.880Z,99120.05
2018-10-05T22:46:45.072Z,99104.66
2018-10-05T22:49:15.935Z,99100.59
2018-10-05T22:51:46.872Z,99099.78
2018-10-05T22:54:17.652Z,99101.80
2018-10-05T22:56:48.289Z,99093.27
2018-10-05T22:59:18.988Z,99091.33
2018-10-05T23:01:49.833Z,99089.94
2018-10-05T23:04:20.519Z,99093.86
2018-10-05T23:06:51.416Z,99093.37
2018-10-05T23:09:22.187Z,99094.17
2018-10-05T23:11:52.919Z,99098.19
2018-10-05T23:14:23.639Z,99088.81
2018-10-05T23:16:54.749Z,99079.76
2018-10-05T23:19:25.571Z,99081.22
2018-10-05T23:21:56.251Z,99073.93
2018-10-05T23:24:27.224Z,99069.86
2018-10-05T23:26:58.363Z,99065.61
2018-10-05T23:29:29.143Z,99059.48
2018-10-05T23:32:00.187Z,99057.38
2018-10-05T23:34:30.959Z,99066.14
2018-10-05T23:37:02.095Z,99071.59
2018-10-05T23:39:32.861Z,99073.52
2018-10-05T23:42:03.592Z,99069.97
2018-10-05T23:44:34.450Z,99067.25
2018-10-05T23:47:05.224Z,99073.59
2018-10-05T23:49:36.056Z,99071.99
2018-10-05T23:52:28.537Z,99068.98
2018-10-05T23:54:59.187Z,99065.73
2018-10-05T23:57:29.949Z,99069.06
